createdAt,value
2014-10-05T19:49:01.453Z,99233
2014-10-05T19:49:19.890Z,99227
2014-10-05T19:49:38.314Z,99224
2014-10-05T19:49:56.752Z,99221
2014-10-05T19:50:15.189Z,99238
2014-10-05T19:50:33.613Z,99230
2014-10-05T19:50:52.051Z,99224
2014-10-05T19:51:10.472Z,99232
2014-10-05T19:51:28.910Z,99230
2014-10-05T19:51:47.349Z,99227
2014-10-05T19:52:05.771Z,99227
2014-10-05T19:52:24.209Z,99218
2014-10-05T19:52:42.492Z,99215
2014-10-05T19:53:00.930Z,99224
2014-10-05T19:53:19.351Z,99224
2014-10-05T19:53:37.789Z,99221
2014-10-05T19:53:56.244Z,99227
2014-10-05T19:54:14.650Z,99238
2014-10-05T19:54:33.088Z,99215
2014-10-05T19:54:51.513Z,99221
2014-10-05T19:55:09.950Z,99215
2014-10-05T19:55:28.403Z,99224
2014-10-05T19:55:46.825Z,99210
2014-10-05T19:56:05.280Z,99227
2014-10-05T19:56:23.702Z,99221
2014-10-05T19:56:42.140Z,99227
2014-10-05T19:57:00.751Z,99213
2014-10-05T19:57:24.985Z,99218
2014-10-05T19:57:44.017Z,99218
2014-10-05T19:58:02.456Z,99227
2014-10-05T19:58:20.894Z,99213
2014-10-05T19:58:39.331Z,99215
2014-10-05T19:58:57.784Z,99218
2014-10-05T19:59:19.474Z,99221
2014-10-05T19:59:39.349Z,99213
2014-10-05T19:59:59.458Z,99218
2014-10-05T20:00:18.226Z,99215
2014-10-05T20:00:36.663Z,99204
2014-10-05T20:00:55.101Z,99215
2014-10-05T20:01:13.525Z,99201
2014-10-05T20:01:31.962Z,99218
2014-10-05T20:01:50.400Z,99218
2014-10-05T20:02:08.837Z,99215
2014-10-05T20:02:27.277Z,99210
2014-10-05T20:02:45.699Z,99218
2014-10-05T20:03:04.136Z,99221
2014-10-05T20:03:22.576Z,99210
2014-10-05T20:03:40.997Z,99212
2014-10-05T20:03:59.435Z,99229
2014-10-05T20:04:17.872Z,99201
2014-10-05T20:04:36.312Z,99210
2014-10-05T20:04:54.749Z,99221
2014-10-05T20:05:13.171Z,99215
2014-10-05T20:05:31.611Z,99198
2014-10-05T20:05:50.033Z,99207
2014-10-05T20:06:08.470Z,99207
2014-10-05T20:06:26.908Z,99207
2014-10-05T20:06:45.347Z,99207
2014-10-05T20:07:03.769Z,99212
2014-10-05T20:07:22.207Z,99204
2014-10-05T20:07:40.647Z,99198
2014-10-05T20:07:59.069Z,99198
2014-10-05T20:08:17.522Z,99215
2014-10-05T20:08:35.960Z,99201
2014-10-05T20:08:54.383Z,99198
2014-10-05T20:09:12.821Z,99207
2014-10-05T20:09:31.243Z,99201
2014-10-05T20:09:49.698Z,99198
2014-10-05T20:10:08.135Z,99210
2014-10-05T20:10:26.573Z,99196
2014-10-05T20:10:44.995Z,99201
2014-10-05T20:11:03.433Z,99196
2014-10-05T20:11:21.871Z,99198
2014-10-05T20:11:40.293Z,99204
2014-10-05T20:11:58.733Z,99201
2014-10-05T20:12:17.155Z,99198
2014-10-05T20:12:35.593Z,99198
2014-10-05T20:12:54.014Z,99207
2014-10-05T20:13:12.453Z,99207
2014-10-05T20:13:30.250Z,99210
2014-10-05T20:13:48.687Z,99204
2014-10-05T20:14:07.111Z,99204
2014-10-05T20:14:25.549Z,99204
2014-10-05T20:14:43.986Z,99204
2014-10-05T20:15:02.424Z,99204
2014-10-05T20:15:20.849Z,99204
2014-10-05T20:15:39.286Z,99204
2014-10-05T20:15:57.708Z,99201
2014-10-05T20:16:16.163Z,99198
2014-10-05T20:16:34.601Z,99198
2014-10-05T20:16:53.022Z,99204
2014-10-05T20:17:11.460Z,99201
2014-10-05T20:17:29.884Z,99198
2014-10-05T20:17:48.321Z,99201
2014-10-05T20:18:06.743Z,99198
2014-10-05T20:18:25.214Z,99204
2014-10-05T20:18:43.636Z,99204
2014-10-05T20:19:02.073Z,99210
2014-10-05T20:19:20.511Z,99210
2014-10-05T20:19:38.935Z,99207
2014-10-05T20:19:57.372Z,99196
2014-10-05T20:20:15.810Z,99204
2014-10-05T20:20:34.234Z,99190
2014-10-05T20:20:52.671Z,99201
2014-10-05T20:21:11.109Z,99210
2014-10-05T20:21:29.546Z,99204
2014-10-05T20:21:47.986Z,99193
2014-10-05T20:22:06.407Z,99204
2014-10-05T20:22:24.845Z,99204
2014-10-05T20:22:43.284Z,99207
2014-10-05T20:23:01.706Z,99204
2014-10-05T20:23:20.144Z,99204
2014-10-05T20:23:38.566Z,99207
2014-10-05T20:23:57.005Z,99201
2014-10-05T20:24:15.443Z,99198
2014-10-05T20:24:33.880Z,99198
2014-10-05T20:24:52.304Z,99210
2014-10-05T20:25:10.742Z,99198
2014-10-05T20:25:28.538Z,99204
2014-10-05T20:25:46.960Z,99207
2014-10-05T20:26:05.400Z,99201
2014-10-05T20:26:23.837Z,99201
2014-10-05T20:26:42.259Z,99204
2014-10-05T20:27:00.699Z,99210
2014-10-05T20:27:19.121Z,99207
2014-10-05T20:27:37.574Z,99207
2014-10-05T20:27:56.433Z,99201
2014-10-05T20:28:14.841Z,99198
2014-10-05T20:28:33.326Z,99201
2014-10-05T20:28:51.966Z,99210
2014-10-05T20:29:10.343Z,99210
2014-10-05T20:29:28.812Z,99213
2014-10-05T20:29:47.234Z,99215
2014-10-05T20:30:05.671Z,99207
2014-10-05T20:30:24.096Z,99218
2014-10-05T20:30:42.534Z,99210
2014-10-05T20:31:00.956Z,99215
2014-10-05T20:31:19.410Z,99213
2014-10-05T20:31:37.847Z,99210
2014-10-05T20:31:56.285Z,99204
2014-10-05T20:32:14.707Z,99215
2014-10-05T20:32:33.146Z,99204
2014-10-05T20:32:51.584Z,99207
2014-10-05T20:33:10.021Z,99213
2014-10-05T20:33:28.445Z,99204
2014-10-05T20:33:46.883Z,99210
2014-10-05T20:34:05.320Z,99204
2014-10-05T20:34:23.758Z,99210
2014-10-05T20:34:42.182Z,99207
2014-10-05T20:35:00.620Z,99213
2014-10-05T20:35:19.042Z,99198
2014-10-05T20:35:37.513Z,99210
2014-10-05T20:35:55.966Z,99213
2014-10-05T20:36:14.388Z,99201
2014-10-05T20:36:32.856Z,99213
2014-10-05T20:36:51.296Z,99210
2014-10-05T20:37:09.749Z,99207
2014-10-05T20:37:28.171Z,99204
2014-10-05T20:37:46.595Z,99213
2014-10-05T20:38:05.032Z,99207
2014-10-05T20:38:23.470Z,99201
2014-10-05T20:38:41.907Z,99196
2014-10-05T20:39:00.331Z,99204
2014-10-05T20:39:18.847Z,99210
2014-10-05T20:39:37.222Z,99215
2014-10-05T20:39:55.739Z,99201
2014-10-05T20:40:14.146Z,99204
2014-10-05T20:40:32.583Z,99210
2014-10-05T20:40:51.021Z,99201
2014-10-05T20:41:09.445Z,99201
2014-10-05T20:41:27.914Z,99204
2014-10-05T20:41:46.367Z,99213
2014-10-05T20:42:04.821Z,99201
2014-10-05T20:42:22.618Z,99196
2014-10-05T20:42:41.040Z,99207
2014-10-05T20:42:59.478Z,99196
2014-10-05T20:43:17.917Z,99198
2014-10-05T20:43:36.339Z,99213
2014-10-05T20:43:54.777Z,99207
2014-10-05T20:44:13.216Z,99201
2014-10-05T20:44:31.685Z,99201
2014-10-05T20:44:50.122Z,99201
2014-10-05T20:45:08.560Z,99190
2014-10-05T20:45:26.984Z,99201
2014-10-05T20:45:45.421Z,99193
2014-10-05T20:46:03.859Z,99196
2014-10-05T20:46:22.424Z,99190
2014-10-05T20:46:40.862Z,99207
2014-10-05T20:46:59.284Z,99201
2014-10-05T20:47:17.721Z,99198
2014-10-05T20:47:36.160Z,99198
2014-10-05T20:47:54.925Z,99198
2014-10-05T20:48:13.363Z,99193
2014-10-05T20:48:32.068Z,99193
2014-10-05T20:48:50.708Z,99196
2014-10-05T20:49:09.146Z,99193
2014-10-05T20:49:27.583Z,99196
2014-10-05T20:49:46.008Z,99201
2014-10-05T20:50:04.446Z,99184
2014-10-05T20:50:22.868Z,99201
2014-10-05T20:50:41.729Z,99201
2014-10-05T20:51:00.026Z,99204
2014-10-05T20:51:18.463Z,99190
2014-10-05T20:51:36.885Z,99196
2014-10-05T20:51:55.325Z,99196
2014-10-05T20:52:13.762Z,99201
2014-10-05T20:52:32.825Z,99193
2014-10-05T20:52:50.280Z,99198
2014-10-05T20:53:08.702Z,99196
2014-10-05T20:53:27.139Z,99190
2014-10-05T20:53:45.577Z,99201
2014-10-05T20:54:04.001Z,99190
2014-10-05T20:54:22.485Z,99201
2014-10-05T20:54:40.923Z,99196
2014-10-05T20:54:59.346Z,99187
2014-10-05T20:55:17.784Z,99193
2014-10-05T20:55:36.206Z,99184
2014-10-05T20:55:54.643Z,99199
2014-10-05T20:56:13.083Z,99184
2014-10-05T20:56:31.520Z,99190
2014-10-05T20:56:49.958Z,99190
2014-10-05T20:57:08.382Z,99184
2014-10-05T20:57:26.819Z,99190
2014-10-05T20:57:45.257Z,99182
2014-10-05T20:58:03.679Z,99187
2014-10-05T20:58:22.118Z,99196
2014-10-05T20:58:40.556Z,99187
2014-10-05T20:58:58.368Z,99184
2014-10-05T20:59:16.854Z,99196
2014-10-05T20:59:35.245Z,99184
2014-10-05T20:59:53.698Z,99193
2014-10-05T21:00:12.136Z,99193
2014-10-05T21:00:30.575Z,99184
2014-10-05T21:00:49.028Z,99193
2014-10-05T21:01:07.560Z,99193
2014-10-05T21:01:26.015Z,99184
2014-10-05T21:01:44.452Z,99196
2014-10-05T21:02:02.874Z,99184
2014-10-05T21:02:21.312Z,99184
2014-10-05T21:02:39.736Z,99196
2014-10-05T21:02:58.174Z,99193
2014-10-05T21:03:16.596Z,99190
2014-10-05T21:03:35.035Z,99182
2014-10-05T21:03:53.457Z,99187
2014-10-05T21:04:11.895Z,99187
2014-10-05T21:04:30.317Z,99193
2014-10-05T21:04:48.756Z,99193
2014-10-05T21:05:07.194Z,99193
2014-10-05T21:05:25.615Z,99193
2014-10-05T21:05:44.055Z,99193
2014-10-05T21:06:02.492Z,99190
2014-10-05T21:06:20.914Z,99199
2014-10-05T21:06:39.367Z,99201
2014-10-05T21:06:57.790Z,99190
2014-10-05T21:07:16.212Z,99190
2014-10-05T21:07:34.650Z,99190
2014-10-05T21:07:53.075Z,99196
2014-10-05T21:08:10.887Z,99190
2014-10-05T21:08:29.309Z,99193
2014-10-05T21:08:47.746Z,99193
2014-10-05T21:09:06.186Z,99193
2014-10-05T21:09:24.608Z,99193
2014-10-05T21:09:43.030Z,99190
2014-10-05T21:10:01.454Z,99190
2014-10-05T21:10:19.891Z,99193
2014-10-05T21:10:38.344Z,99193
2014-10-05T21:10:56.766Z,99187
2014-10-05T21:11:15.190Z,99196
2014-10-05T21:11:33.627Z,99193
2014-10-05T21:11:52.049Z,99199
2014-10-05T21:12:10.489Z,99199
2014-10-05T21:12:28.926Z,99199
2014-10-05T21:12:47.364Z,99187
2014-10-05T21:13:05.786Z,99193
2014-10-05T21:13:24.225Z,99196
2014-10-05T21:13:42.694Z,99201
2014-10-05T21:14:01.100Z,99196
2014-10-05T21:14:19.540Z,99187
2014-10-05T21:14:37.977Z,99190
2014-10-05T21:14:56.415Z,99187
2014-10-05T21:15:14.837Z,99199
2014-10-05T21:15:33.292Z,99193
2014-10-05T21:15:51.714Z,99187
2014-10-05T21:16:10.151Z,99196
2014-10-05T21:16:28.592Z,99199
2014-10-05T21:16:47.029Z,99187
2014-10-05T21:17:05.451Z,99199
2014-10-05T21:17:23.888Z,99201
2014-10-05T21:17:42.312Z,99199
2014-10-05T21:18:00.750Z,99187
2014-10-05T21:18:19.172Z,99193
2014-10-05T21:18:37.596Z,99193
2014-10-05T21:18:56.033Z,99199
2014-10-05T21:19:14.471Z,99196
2014-10-05T21:19:32.908Z,99193
2014-10-05T21:19:51.347Z,99193
2014-10-05T21:20:09.768Z,99199
2014-10-05T21:20:28.206Z,99190
2014-10-05T21:20:46.630Z,99193
2014-10-05T21:21:05.192Z,99193
2014-10-05T21:21:23.645Z,99190
2014-10-05T21:21:42.083Z,99196
2014-10-05T21:22:00.507Z,99193
2014-10-05T21:22:18.929Z,99193
2014-10-05T21:22:37.382Z,99190
2014-10-05T21:22:55.806Z,99184
2014-10-05T21:23:14.243Z,99190
2014-10-05T21:23:32.665Z,99190
2014-10-05T21:23:51.103Z,99184
2014-10-05T21:24:09.559Z,99184
2014-10-05T21:24:27.965Z,99184
2014-10-05T21:24:46.402Z,99187
2014-10-05T21:25:04.858Z,99187
2014-10-05T21:25:23.264Z,99187
2014-10-05T21:25:41.701Z,99184
2014-10-05T21:26:00.123Z,99193
2014-10-05T21:26:18.563Z,99179
2014-10-05T21:26:36.985Z,99196
2014-10-05T21:26:55.453Z,99187
2014-10-05T21:27:13.877Z,99176
2014-10-05T21:27:32.362Z,99193
2014-10-05T21:27:51.174Z,99182
2014-10-05T21:28:09.627Z,99187
2014-10-05T21:28:28.067Z,99184
2014-10-05T21:28:46.489Z,99182
2014-10-05T21:29:04.910Z,99184
2014-10-05T21:29:23.350Z,99176
2014-10-05T21:29:41.787Z,99182
2014-10-05T21:30:00.225Z,99184
2014-10-05T21:30:18.647Z,99193
2014-10-05T21:30:37.086Z,99190
2014-10-05T21:30:55.524Z,99187
2014-10-05T21:31:13.961Z,99184
2014-10-05T21:31:32.385Z,99184
2014-10-05T21:31:50.823Z,99184
2014-10-05T21:32:09.229Z,99184
2014-10-05T21:32:27.651Z,99179
2014-10-05T21:32:46.075Z,99184
2014-10-05T21:33:04.497Z,99176
2014-10-05T21:33:22.934Z,99187
2014-10-05T21:33:41.375Z,99179
2014-10-05T21:33:59.812Z,99184
2014-10-05T21:34:18.250Z,99187
2014-10-05T21:34:36.687Z,99187
2014-10-05T21:34:55.110Z,99187
2014-10-05T21:35:13.547Z,99193
2014-10-05T21:35:31.329Z,99190
2014-10-05T21:35:49.769Z,99182
2014-10-05T21:36:08.207Z,99190
2014-10-05T21:36:26.629Z,99176
2014-10-05T21:36:45.316Z,99176
2014-10-05T21:37:04.458Z,99173
2014-10-05T21:37:22.895Z,99187
2014-10-05T21:37:41.333Z,99182
2014-10-05T21:37:59.758Z,99179
2014-10-05T21:38:18.195Z,99182
2014-10-05T21:38:36.617Z,99179
2014-10-05T21:38:55.054Z,99182
2014-10-05T21:39:13.478Z,99173
2014-10-05T21:39:31.916Z,99182
2014-10-05T21:39:50.338Z,99185
2014-10-05T21:40:08.793Z,99171
2014-10-05T21:40:27.199Z,99190
2014-10-05T21:40:45.621Z,99176
2014-10-05T21:41:04.058Z,99185
2014-10-05T21:41:22.513Z,99185
2014-10-05T21:41:40.934Z,99182
2014-10-05T21:41:59.356Z,99182
2014-10-05T21:42:17.797Z,99185
2014-10-05T21:42:36.219Z,99176
2014-10-05T21:42:54.656Z,99171
2014-10-05T21:43:13.234Z,99174
2014-10-05T21:43:31.705Z,99179
2014-10-05T21:43:50.111Z,99185
2014-10-05T21:44:08.549Z,99174
2014-10-05T21:44:26.973Z,99182
2014-10-05T21:44:45.410Z,99185
2014-10-05T21:45:03.832Z,99182
2014-10-05T21:45:22.254Z,99188
2014-10-05T21:45:40.693Z,99188
2014-10-05T21:45:59.115Z,99182
2014-10-05T21:46:16.912Z,99179
2014-10-05T21:46:35.367Z,99185
2014-10-05T21:46:53.805Z,99182
2014-10-05T21:47:12.227Z,99182
2014-10-05T21:47:30.664Z,99185
2014-10-05T21:47:49.104Z,99182
2014-10-05T21:48:07.526Z,99179
2014-10-05T21:48:25.963Z,99179
2014-10-05T21:48:44.387Z,99176
2014-10-05T21:49:02.824Z,99168
2014-10-05T21:49:21.262Z,99179
2014-10-05T21:49:39.684Z,99165
2014-10-05T21:49:58.123Z,99174
2014-10-05T21:50:16.545Z,99182
2014-10-05T21:50:34.983Z,99182
2014-10-05T21:50:53.408Z,99182
2014-10-05T21:51:11.845Z,99179
2014-10-05T21:51:30.283Z,99179
2014-10-05T21:51:48.704Z,99179
2014-10-05T21:52:07.144Z,99168
2014-10-05T21:52:25.566Z,99168
2014-10-05T21:52:44.003Z,99171
2014-10-05T21:53:02.442Z,99171
2014-10-05T21:53:20.864Z,99168
2014-10-05T21:53:39.301Z,99171
2014-10-05T21:53:57.723Z,99165
2014-10-05T21:54:16.163Z,99179
2014-10-05T21:54:34.600Z,99174
2014-10-05T21:54:53.038Z,99174
2014-10-05T21:55:11.493Z,99174
2014-10-05T21:55:29.915Z,99171
2014-10-05T21:55:48.352Z,99180
2014-10-05T21:56:06.774Z,99163
2014-10-05T21:56:25.213Z,99180
2014-10-05T21:56:43.635Z,99180
2014-10-05T21:57:02.073Z,99165
2014-10-05T21:57:20.497Z,99174
2014-10-05T21:57:38.919Z,99171
2014-10-05T21:57:57.356Z,99174
2014-10-05T21:58:15.778Z,99185
2014-10-05T21:58:34.234Z,99177
2014-10-05T21:58:52.000Z,99165
2014-10-05T21:59:10.437Z,99185
2014-10-05T21:59:28.860Z,99177
2014-10-05T21:59:47.298Z,99177
2014-10-05T22:00:05.735Z,99177
2014-10-05T22:00:24.157Z,99171
2014-10-05T22:00:42.597Z,99177
2014-10-05T22:01:01.035Z,99182
2014-10-05T22:01:19.457Z,99174
2014-10-05T22:01:37.881Z,99168
2014-10-05T22:01:56.318Z,99177
2014-10-05T22:02:14.740Z,99166
2014-10-05T22:02:33.178Z,99177
2014-10-05T22:02:51.601Z,99177
2014-10-05T22:03:10.039Z,99183
2014-10-05T22:03:28.476Z,99177
2014-10-05T22:03:46.900Z,99180
2014-10-05T22:04:05.338Z,99188
2014-10-05T22:04:23.775Z,99177
2014-10-05T22:04:42.197Z,99174
2014-10-05T22:05:00.621Z,99183
2014-10-05T22:05:19.059Z,99180
2014-10-05T22:05:37.480Z,99171
2014-10-05T22:05:55.904Z,99171
2014-10-05T22:06:14.342Z,99177
2014-10-05T22:06:32.779Z,99171
2014-10-05T22:06:51.201Z,99171
2014-10-05T22:07:09.625Z,99180
2014-10-05T22:07:28.063Z,99180
2014-10-05T22:07:46.500Z,99169
2014-10-05T22:08:04.941Z,99163
2014-10-05T22:08:23.362Z,99169
2014-10-05T22:08:41.800Z,99177
2014-10-05T22:09:00.222Z,99171
2014-10-05T22:09:18.661Z,99163
2014-10-05T22:09:37.099Z,99171
2014-10-05T22:09:55.521Z,99169
2014-10-05T22:10:13.945Z,99171
2014-10-05T22:10:32.382Z,99174
2014-10-05T22:10:50.820Z,99169
2014-10-05T22:11:09.257Z,99183
2014-10-05T22:11:27.680Z,99171
2014-10-05T22:11:46.102Z,99169
2014-10-05T22:12:04.539Z,99171
2014-10-05T22:12:22.979Z,99171
2014-10-05T22:12:41.416Z,99171
2014-10-05T22:12:59.854Z,99171
2014-10-05T22:13:18.260Z,99171
2014-10-05T22:13:36.701Z,99171
2014-10-05T22:13:55.122Z,99171
2014-10-05T22:14:13.560Z,99177
2014-10-05T22:14:31.984Z,99174
2014-10-05T22:14:50.406Z,99177
2014-10-05T22:15:08.843Z,99171
2014-10-05T22:15:27.265Z,99171
2014-10-05T22:15:45.689Z,99174
2014-10-05T22:16:04.126Z,99169
2014-10-05T22:16:22.564Z,99166
2014-10-05T22:16:40.988Z,99169
2014-10-05T22:16:59.425Z,99171
2014-10-05T22:17:17.847Z,99166
2014-10-05T22:17:36.269Z,99169
2014-10-05T22:17:54.693Z,99169
2014-10-05T22:18:13.130Z,99177
2014-10-05T22:18:31.568Z,99166
2014-10-05T22:18:49.992Z,99177
2014-10-05T22:19:08.429Z,99169
2014-10-05T22:19:26.851Z,99180
2014-10-05T22:19:45.273Z,99163
2014-10-05T22:20:03.713Z,99169
2014-10-05T22:20:22.150Z,99169
2014-10-05T22:20:40.572Z,99163
2014-10-05T22:20:59.011Z,99160
2014-10-05T22:21:17.433Z,99171
2014-10-05T22:21:35.886Z,99163
2014-10-05T22:21:54.308Z,99171
2014-10-05T22:22:12.748Z,99166
2014-10-05T22:22:31.170Z,99169
2014-10-05T22:22:49.607Z,99157
2014-10-05T22:23:08.047Z,99163
2014-10-05T22:23:26.469Z,99157
2014-10-05T22:23:44.906Z,99169
2014-10-05T22:24:03.328Z,99160
2014-10-05T22:24:21.925Z,99163
2014-10-05T22:24:40.347Z,99157
2014-10-05T22:24:58.784Z,99160
2014-10-05T22:25:17.224Z,99169
2014-10-05T22:25:35.645Z,99160
2014-10-05T22:25:54.083Z,99160
2014-10-05T22:26:12.505Z,99163
2014-10-05T22:26:30.944Z,99166
2014-10-05T22:26:49.382Z,99172
2014-10-05T22:27:07.804Z,99160
2014-10-05T22:27:26.243Z,99166
2014-10-05T22:27:44.665Z,99174
2014-10-05T22:28:03.103Z,99163
2014-10-05T22:28:21.524Z,99166
2014-10-05T22:28:39.963Z,99169
2014-10-05T22:28:58.385Z,99163
2014-10-05T22:29:16.807Z,99160
2014-10-05T22:29:35.247Z,99160
2014-10-05T22:29:53.669Z,99160
2014-10-05T22:30:12.091Z,99172
2014-10-05T22:30:30.528Z,99172
2014-10-05T22:30:48.952Z,99149
2014-10-05T22:31:07.390Z,99166
2014-10-05T22:31:25.812Z,99166
2014-10-05T22:31:44.251Z,99160
2014-10-05T22:32:02.673Z,99166
2014-10-05T22:32:21.142Z,99160
2014-10-05T22:32:39.564Z,99172
2014-10-05T22:32:57.987Z,99163
2014-10-05T22:33:16.424Z,99166
2014-10-05T22:33:34.846Z,99166
2014-10-05T22:33:53.271Z,99155
2014-10-05T22:34:11.708Z,99160
2014-10-05T22:34:30.130Z,99160
2014-10-05T22:34:48.552Z,99155
2014-10-05T22:35:06.992Z,99152
2014-10-05T22:35:25.820Z,99157
2014-10-05T22:35:44.242Z,99163
2014-10-05T22:36:02.681Z,99157
2014-10-05T22:36:21.119Z,99157
2014-10-05T22:36:39.556Z,99152
2014-10-05T22:36:57.994Z,99160
2014-10-05T22:37:16.418Z,99155
2014-10-05T22:37:34.856Z,99149
2014-10-05T22:37:53.278Z,99152
2014-10-05T22:38:11.716Z,99157
2014-10-05T22:38:30.154Z,99149
2014-10-05T22:38:48.576Z,99157
2014-10-05T22:39:07.013Z,99155
2014-10-05T22:39:25.437Z,99155
2014-10-05T22:39:43.875Z,99152
2014-10-05T22:40:02.312Z,99149
2014-10-05T22:40:20.799Z,99152
2014-10-05T22:40:39.221Z,99152
2014-10-05T22:40:57.659Z,99155
2014-10-05T22:41:16.081Z,99157
2014-10-05T22:41:34.520Z,99155
2014-10-05T22:41:52.942Z,99152
2014-10-05T22:42:11.380Z,99149
2014-10-05T22:42:29.818Z,99139
2014-10-05T22:42:48.240Z,99163
2014-10-05T22:43:06.677Z,99149
2014-10-05T22:43:25.115Z,99152
2014-10-05T22:43:43.539Z,99149
2014-10-05T22:44:01.961Z,99152
2014-10-05T22:44:20.398Z,99155
2014-10-05T22:44:38.823Z,99155
2014-10-05T22:44:57.245Z,99152
2014-10-05T22:45:15.682Z,99149
2014-10-05T22:45:33.479Z,99152
2014-10-05T22:45:51.903Z,99147
2014-10-05T22:46:10.325Z,99147
2014-10-05T22:46:28.763Z,99142
2014-10-05T22:46:47.202Z,99144
2014-10-05T22:47:05.624Z,99149
2014-10-05T22:47:24.061Z,99149
2014-10-05T22:47:42.483Z,99147
2014-10-05T22:48:00.923Z,99147
2014-10-05T22:48:19.360Z,99142
2014-10-05T22:48:37.782Z,99144
2014-10-05T22:48:56.064Z,99142
2014-10-05T22:49:14.486Z,99144
2014-10-05T22:49:32.924Z,99147
2014-10-05T22:49:51.361Z,99144
2014-10-05T22:50:09.786Z,99144
2014-10-05T22:50:28.224Z,99144
2014-10-05T22:50:46.646Z,99144
2014-10-05T22:51:05.069Z,99136
2014-10-05T22:51:23.507Z,99144
2014-10-05T22:51:41.929Z,99142
2014-10-05T22:52:00.366Z,99142
2014-10-05T22:52:18.790Z,99139
2014-10-05T22:52:37.228Z,99147
2014-10-05T22:52:55.650Z,99130
2014-10-05T22:53:14.073Z,99142
2014-10-05T22:53:32.511Z,99136
2014-10-05T22:53:50.933Z,99136
2014-10-05T22:54:09.370Z,99136
2014-10-05T22:54:27.810Z,99136
2014-10-05T22:54:46.232Z,99144
2014-10-05T22:55:04.669Z,99142
2014-10-05T22:55:23.093Z,99142
2014-10-05T22:55:41.531Z,99136
2014-10-05T22:55:59.968Z,99144
2014-10-05T22:56:18.390Z,99142
2014-10-05T22:56:36.829Z,99125
2014-10-05T22:56:55.251Z,99136
2014-10-05T22:57:13.673Z,99136
2014-10-05T22:57:32.097Z,99142
2014-10-05T22:57:50.535Z,99130
2014-10-05T22:58:08.972Z,99136
2014-10-05T22:58:27.394Z,99119
2014-10-05T22:58:45.833Z,99136
2014-10-05T22:59:04.271Z,99133
2014-10-05T22:59:22.693Z,99128
2014-10-05T22:59:41.133Z,99133
2014-10-05T22:59:59.555Z,99130
2014-10-05T23:00:17.993Z,99130
2014-10-05T23:00:36.430Z,99133
2014-10-05T23:00:54.854Z,99122
2014-10-05T23:01:13.307Z,99130
2014-10-05T23:01:31.729Z,99130
2014-10-05T23:01:50.152Z,99125
2014-10-05T23:02:08.574Z,99125
2014-10-05T23:02:27.011Z,99136
2014-10-05T23:02:45.449Z,99130
2014-10-05T23:03:03.888Z,99125
2014-10-05T23:03:22.310Z,99130
2014-10-05T23:03:40.748Z,99119
2014-10-05T23:03:59.173Z,99133
2014-10-05T23:04:17.610Z,99130
2014-10-05T23:04:36.032Z,99130
2014-10-05T23:04:54.469Z,99130
2014-10-05T23:05:12.909Z,99125
2014-10-05T23:05:31.331Z,99125
2014-10-05T23:05:49.768Z,99128
2014-10-05T23:06:08.192Z,99130
2014-10-05T23:06:26.630Z,99130
2014-10-05T23:06:45.067Z,99119
2014-10-05T23:07:03.489Z,99133
2014-10-05T23:07:21.929Z,99125
2014-10-05T23:07:40.350Z,99122
2014-10-05T23:07:58.788Z,99128
2014-10-05T23:08:17.227Z,99125
2014-10-05T23:08:35.649Z,99125
2014-10-05T23:08:54.087Z,99133
2014-10-05T23:09:12.524Z,99133
2014-10-05T23:09:30.948Z,99125
2014-10-05T23:09:49.386Z,99133
2014-10-05T23:10:07.808Z,99133
2014-10-05T23:10:26.247Z,99125
2014-10-05T23:10:44.685Z,99113
2014-10-05T23:11:03.106Z,99125
2014-10-05T23:11:21.544Z,99113
2014-10-05T23:11:39.968Z,99122
2014-10-05T23:11:58.405Z,99125
2014-10-05T23:12:16.827Z,99116
2014-10-05T23:12:35.267Z,99136
2014-10-05T23:12:53.704Z,99133
2014-10-05T23:13:12.142Z,99119
2014-10-05T23:13:30.595Z,99119
2014-10-05T23:13:49.066Z,99116
2014-10-05T23:14:07.487Z,99125
2014-10-05T23:14:25.925Z,99125
2014-10-05T23:14:44.349Z,99119
2014-10-05T23:15:02.786Z,99125
2014-10-05T23:15:21.208Z,99122
2014-10-05T23:15:39.005Z,99128
2014-10-05T23:15:57.445Z,99119
2014-10-05T23:16:15.866Z,99122
2014-10-05T23:16:34.288Z,99122
2014-10-05T23:16:52.712Z,99122
2014-10-05T23:17:11.150Z,99125
2014-10-05T23:17:29.572Z,99116
2014-10-05T23:17:48.009Z,99108
2014-10-05T23:18:06.449Z,99119
2014-10-05T23:18:24.870Z,99116
2014-10-05T23:18:43.308Z,99119
2014-10-05T23:19:01.732Z,99116
2014-10-05T23:19:20.169Z,99116
2014-10-05T23:19:38.591Z,99111
2014-10-05T23:19:57.013Z,99111
2014-10-05T23:20:15.454Z,99108
2014-10-05T23:20:33.875Z,99111
2014-10-05T23:20:52.313Z,99108
2014-10-05T23:21:10.752Z,99102
2014-10-05T23:21:29.174Z,99116
2014-10-05T23:21:47.752Z,99105
2014-10-05T23:22:06.174Z,99114
2014-10-05T23:22:24.598Z,99114
2014-10-05T23:22:43.020Z,99108
2014-10-05T23:23:01.458Z,99119
2014-10-05T23:23:19.897Z,99111
2014-10-05T23:23:38.319Z,99108
2014-10-05T23:23:56.756Z,99111
2014-10-05T23:24:15.178Z,99116
2014-10-05T23:24:33.618Z,99108
2014-10-05T23:24:52.055Z,99105
2014-10-05T23:25:10.477Z,99105
2014-10-05T23:25:28.979Z,99105
2014-10-05T23:25:47.385Z,99108
2014-10-05T23:26:05.823Z,99108
2014-10-05T23:26:24.245Z,99105
2014-10-05T23:26:42.684Z,99114
2014-10-05T23:27:01.106Z,99119
2014-10-05T23:27:19.528Z,99116
2014-10-05T23:27:37.969Z,99108
2014-10-05T23:27:56.406Z,99111
2014-10-05T23:28:14.828Z,99105
2014-10-05T23:28:33.265Z,99111
2014-10-05T23:28:51.704Z,99105
2014-10-05T23:29:10.126Z,99111
2014-10-05T23:29:28.548Z,99108
2014-10-05T23:29:46.987Z,99108
2014-10-05T23:30:05.409Z,99105
2014-10-05T23:30:23.831Z,99116
2014-10-05T23:30:42.268Z,99108
2014-10-05T23:31:00.693Z,99111
2014-10-05T23:31:19.131Z,99108
2014-10-05T23:31:37.553Z,99108
2014-10-05T23:31:55.991Z,99097
2014-10-05T23:32:14.413Z,99102
2014-10-05T23:32:32.851Z,99105
2014-10-05T23:32:51.290Z,99108
2014-10-05T23:33:09.712Z,99105
2014-10-05T23:33:28.149Z,99108
2014-10-05T23:33:46.571Z,99105
2014-10-05T23:34:05.011Z,99105
2014-10-05T23:34:23.448Z,99105
2014-10-05T23:34:41.870Z,99105
2014-10-05T23:35:00.310Z,99105
2014-10-05T23:35:18.778Z,99099
2014-10-05T23:35:37.216Z,99108
2014-10-05T23:35:55.638Z,99111
2014-10-05T23:36:14.077Z,99105
2014-10-05T23:36:32.515Z,99105
2014-10-05T23:36:50.937Z,99105
2014-10-05T23:37:09.376Z,99105
2014-10-05T23:37:27.814Z,99108
2014-10-05T23:37:46.251Z,99102
2014-10-05T23:38:04.673Z,99116
2014-10-05T23:38:23.097Z,99111
2014-10-05T23:38:41.534Z,99116
2014-10-05T23:38:59.956Z,99108
2014-10-05T23:39:18.396Z,99111
2014-10-05T23:39:36.833Z,99105
2014-10-05T23:39:55.255Z,99102
2014-10-05T23:40:13.693Z,99114
2014-10-05T23:40:32.132Z,99105
2014-10-05T23:40:50.554Z,99105
2014-10-05T23:41:08.992Z,99102
2014-10-05T23:41:27.416Z,99111
2014-10-05T23:41:45.838Z,99108
2014-10-05T23:42:04.291Z,99102
2014-10-05T23:42:22.713Z,99108
2014-10-05T23:42:41.137Z,99105
2014-10-05T23:42:59.575Z,99108
2014-10-05T23:43:18.012Z,99114
2014-10-05T23:43:36.436Z,99105
2014-10-05T23:43:54.874Z,99108
2014-10-05T23:44:13.311Z,99116
2014-10-05T23:44:31.733Z,99102
2014-10-05T23:44:50.172Z,99114
2014-10-05T23:45:08.594Z,99102
2014-10-05T23:45:27.032Z,99102
2014-10-05T23:45:45.471Z,99102
2014-10-05T23:46:03.253Z,99094
2014-10-05T23:46:21.690Z,99097